sensor_id;sensor_type;location;lat;lon;timestamp;pressure;altitude;pressure_sealevel;temperature;humidity
11878;BME280;5998;42.676;23.268;2024-02-23T00:01:20;94553.41;;;6.53;100.00
11878;BME280;5998;42.676;23.268;2024-02-23T00:03:47;94553.28;;;6.49;100.00
11878;BME280;5998;42.676;23.268;2024-02-23T00:06:13;94541.75;;;6.58;100.00
11878;BME280;5998;42.676;23.268;2024-02-23T00:08:40;94552.63;;;6.52;100.00
11878;BME280;5998;42.676;23.268;2024-02-23T00:11:08;94535.59;;;6.66;100.00
11878;BME280;5998;42.676;23.268;2024-02-23T00:13:36;94534.34;;;6.63;100.00
11878;BME280;5998;42.676;23.268;2024-02-23T00:16:02;94540.94;;;6.66;100.00
11878;BME280;5998;42.676;23.268;2024-02-23T00:18:29;94536.59;;;6.82;100.00
11878;BME280;5998;42.676;23.268;2024-02-23T00:20:56;94542.50;;;6.67;100.00
11878;BME280;5998;42.676;23.268;2024-02-23T00:23:22;94543.31;;;6.67;100.00
11878;BME280;5998;42.676;23.268;2024-02-23T00:25:49;94527.00;;;6.43;100.00
11878;BME280;5998;42.676;23.268;2024-02-23T00:28:16;94532.31;;;6.51;100.00
11878;BME280;5998;42.676;23.268;2024-02-23T00:30:44;94540.94;;;6.66;100.00
11878;BME280;5998;42.676;23.268;2024-02-23T00:33:11;94543.78;;;6.61;100.00
11878;BME280;5998;42.676;23.268;2024-02-23T00:35:37;94558.06;;;6.73;100.00
11878;BME280;5998;42.676;23.268;2024-02-23T00:38:04;94539.09;;;6.87;100.00
11878;BME280;5998;42.676;23.268;2024-02-23T00:40:33;94520.06;;;6.88;100.00
11878;BME280;5998;42.676;23.268;2024-02-23T00:42:59;94525.91;;;6.82;100.00
11878;BME280;5998;42.676;23.268;2024-02-23T00:45:28;94529.00;;;6.92;100.00
11878;BME280;5998;42.676;23.268;2024-02-23T00:47:56;94517.34;;;6.97;100.00
11878;BME280;5998;42.676;23.268;2024-02-23T00:50:23;94517.69;;;6.87;100.00
11878;BME280;5998;42.676;23.268;2024-02-23T00:52:52;94519.56;;;6.95;100.00
11878;BME280;5998;42.676;23.268;2024-02-23T00:55:19;94521.91;;;6.96;100.00
11878;BME280;5998;42.676;23.268;2024-02-23T00:57:46;94514.00;;;7.00;100.00
11878;BME280;5998;42.676;23.268;2024-02-23T01:00:13;94510.19;;;6.80;100.00
11878;BME280;5998;42.676;23.268;2024-02-23T01:02:39;94506.78;;;6.63;100.00
11878;BME280;5998;42.676;23.268;2024-02-23T01:05:08;94513.28;;;6.62;100.00
11878;BME280;5998;42.676;23.268;2024-02-23T01:07:34;94504.44;;;6.23;100.00
11878;BME280;5998;42.676;23.268;2024-02-23T01:10:01;94501.47;;;6.16;100.00
11878;BME280;5998;42.676;23.268;2024-02-23T01:12:29;94507.13;;;6.23;100.00
11878;BME280;5998;42.676;23.268;2024-02-23T01:14:55;94505.38;;;6.27;100.00
11878;BME280;5998;42.676;23.268;2024-02-23T01:17:22;94481.25;;;6.44;100.00
11878;BME280;5998;42.676;23.268;2024-02-23T01:19:48;94492.22;;;6.51;100.00
11878;BME280;5998;42.676;23.268;2024-02-23T01:22:17;94491.50;;;6.34;100.00
11878;BME280;5998;42.676;23.268;2024-02-23T01:24:44;94480.94;;;6.37;100.00
11878;BME280;5998;42.676;23.268;2024-02-23T01:27:11;94497.44;;;6.48;100.00
11878;BME280;5998;42.676;23.268;2024-02-23T01:29:37;94492.81;;;6.57;100.00
11878;BME280;5998;42.676;23.268;2024-02-23T01:32:05;94479.59;;;6.61;100.00
11878;BME280;5998;42.676;23.268;2024-02-23T01:34:32;94484.28;;;6.64;100.00
11878;BME280;5998;42.676;23.268;2024-02-23T01:36:59;94478.63;;;6.65;100.00
11878;BME280;5998;42.676;23.268;2024-02-23T01:39:27;94485.97;;;6.77;100.00
11878;BME280;5998;42.676;23.268;2024-02-23T01:41:54;94482.41;;;6.64;100.00
11878;BME280;5998;42.676;23.268;2024-02-23T01:44:20;94491.47;;;6.42;100.00
11878;BME280;5998;42.676;23.268;2024-02-23T01:46:48;94483.25;;;6.56;100.00
11878;BME280;5998;42.676;23.268;2024-02-23T01:49:14;94459.44;;;6.34;100.00
11878;BME280;5998;42.676;23.268;2024-02-23T01:51:41;94489.63;;;6.34;100.00
11878;BME280;5998;42.676;23.268;2024-02-23T01:54:08;94476.25;;;6.34;100.00
11878;BME280;5998;42.676;23.268;2024-02-23T01:56:37;94477.13;;;6.47;100.00
11878;BME280;5998;42.676;23.268;2024-02-23T01:59:05;94465.13;;;6.62;100.00
11878;BME280;5998;42.676;23.268;2024-02-23T02:01:32;94467.31;;;6.60;100.00
11878;BME280;5998;42.676;23.268;2024-02-23T02:03:59;94458.53;;;6.59;100.00
11878;BME280;5998;42.676;23.268;2024-02-23T02:06:26;94458.25;;;6.43;100.00
11878;BME280;5998;42.676;23.268;2024-02-23T02:08:53;94465.22;;;6.36;100.00
11878;BME280;5998;42.676;23.268;2024-02-23T02:11:19;94452.53;;;6.24;100.00
11878;BME280;5998;42.676;23.268;2024-02-23T02:13:48;94455.50;;;6.31;100.00
11878;BME280;5998;42.676;23.268;2024-02-23T02:16:14;94468.31;;;6.46;100.00
11878;BME280;5998;42.676;23.268;2024-02-23T02:18:41;94449.22;;;6.57;100.00
11878;BME280;5998;42.676;23.268;2024-02-23T02:21:09;94455.84;;;6.59;100.00
11878;BME280;5998;42.676;23.268;2024-02-23T02:23:36;94460.88;;;6.61;100.00
11878;BME280;5998;42.676;23.268;2024-02-23T02:26:03;94461.56;;;6.40;100.00
11878;BME280;5998;42.676;23.268;2024-02-23T02:28:31;94456.19;;;6.11;100.00
11878;BME280;5998;42.676;23.268;2024-02-23T02:30:59;94474.38;;;6.26;100.00
11878;BME280;5998;42.676;23.268;2024-02-23T02:33:26;94480.22;;;6.28;100.00
11878;BME280;5998;42.676;23.268;2024-02-23T02:35:53;94456.31;;;6.23;100.00
11878;BME280;5998;42.676;23.268;2024-02-23T02:38:19;94479.97;;;6.04;100.00
11878;BME280;5998;42.676;23.268;2024-02-23T02:40:46;94464.03;;;6.16;100.00
11878;BME280;5998;42.676;23.268;2024-02-23T02:43:13;94458.06;;;6.19;100.00
11878;BME280;5998;42.676;23.268;2024-02-23T02:45:39;94486.50;;;6.24;100.00
11878;BME280;5998;42.676;23.268;2024-02-23T02:48:08;94467.13;;;6.35;100.00
11878;BME280;5998;42.676;23.268;2024-02-23T02:50:34;94458.09;;;6.11;100.00
11878;BME280;5998;42.676;23.268;2024-02-23T02:53:01;94458.41;;;6.09;100.00
11878;BME280;5998;42.676;23.268;2024-02-23T02:55:28;94466.72;;;6.16;100.00
11878;BME280;5998;42.676;23.268;2024-02-23T02:57:55;94468.94;;;6.14;100.00
11878;BME280;5998;42.676;23.268;2024-02-23T03:00:22;94478.03;;;6.13;100.00
11878;BME280;5998;42.676;23.268;2024-02-23T03:02:49;94465.09;;;6.24;100.00
11878;BME280;5998;42.676;23.268;2024-02-23T03:05:17;94474.69;;;6.33;100.00
11878;BME280;5998;42.676;23.268;2024-02-23T03:07:43;94484.31;;;6.26;100.00
11878;BME280;5998;42.676;23.268;2024-02-23T03:10:10;94475.31;;;6.30;100.00
11878;BME280;5998;42.676;23.268;2024-02-23T03:12:37;94472.28;;;6.40;100.00
11878;BME280;5998;42.676;23.268;2024-02-23T03:15:04;94483.25;;;6.10;100.00
11878;BME280;5998;42.676;23.268;2024-02-23T03:17:32;94482.25;;;6.31;100.00
11878;BME280;5998;42.676;23.268;2024-02-23T03:19:59;94478.88;;;6.43;100.00
11878;BME280;5998;42.676;23.268;2024-02-23T03:22:27;94461.09;;;6.47;100.00
11878;BME280;5998;42.676;23.268;2024-02-23T03:24:54;94477.78;;;6.44;100.00
11878;BME280;5998;42.676;23.268;2024-02-23T03:27:27;94466.69;;;6.25;100.00
11878;BME280;5998;42.676;23.268;2024-02-23T03:29:54;94470.44;;;6.32;100.00
11878;BME280;5998;42.676;23.268;2024-02-23T03:32:20;94479.25;;;6.24;100.00
11878;BME280;5998;42.676;23.268;2024-02-23T03:34:47;94464.47;;;6.27;100.00
11878;BME280;5998;42.676;23.268;2024-02-23T03:37:14;94476.31;;;6.17;100.00
11878;BME280;5998;42.676;23.268;2024-02-23T03:39:42;94473.47;;;6.22;100.00
11878;BME280;5998;42.676;23.268;2024-02-23T03:42:08;94460.19;;;5.88;100.00
11878;BME280;5998;42.676;23.268;2024-02-23T03:44:35;94467.69;;;6.03;100.00
11878;BME280;5998;42.676;23.268;2024-02-23T03:47:02;94466.63;;;5.96;100.00
11878;BME280;5998;42.676;23.268;2024-02-23T03:49:28;94472.59;;;6.01;100.00
11878;BME280;5998;42.676;23.268;2024-02-23T03:51:55;94473.34;;;6.02;100.00
11878;BME280;5998;42.676;23.268;2024-02-23T03:54:21;94482.50;;;6.01;100.00
11878;BME280;5998;42.676;23.268;2024-02-23T03:56:49;94467.28;;;5.75;100.00
11878;BME280;5998;42.676;23.268;2024-02-23T03:59:16;94467.59;;;5.74;100.00
11878;BME280;5998;42.676;23.268;2024-02-23T04:01:43;94460.66;;;5.90;100.00
11878;BME280;5998;42.676;23.268;2024-02-23T04:04:11;94473.84;;;5.95;100.00
11878;BME280;5998;42.676;23.268;2024-02-23T04:06:37;94486.41;;;6.03;100.00
11878;BME280;5998;42.676;23.268;2024-02-23T04:09:04;94462.97;;;6.09;100.00
11878;BME280;5998;42.676;23.268;2024-02-23T04:11:31;94484.50;;;6.12;100.00
11878;BME280;5998;42.676;23.268;2024-02-23T04:13:59;94482.78;;;6.08;100.00
11878;BME280;5998;42.676;23.268;2024-02-23T04:16:26;94471.81;;;6.01;100.00
11878;BME280;5998;42.676;23.268;2024-02-23T04:18:53;94497.44;;;5.84;100.00
11878;BME280;5998;42.676;23.268;2024-02-23T04:21:21;94499.31;;;5.84;100.00
11878;BME280;5998;42.676;23.268;2024-02-23T04:23:48;94468.25;;;5.54;100.00
11878;BME280;5998;42.676;23.268;2024-02-23T04:26:14;94494.00;;;5.58;100.00
11878;BME280;5998;42.676;23.268;2024-02-23T04:28:41;94471.88;;;5.49;100.00
11878;BME280;5998;42.676;23.268;2024-02-23T04:31:10;94482.22;;;5.42;100.00
11878;BME280;5998;42.676;23.268;2024-02-23T04:33:37;94486.31;;;5.57;100.00
11878;BME280;5998;42.676;23.268;2024-02-23T04:36:05;94483.31;;;5.50;100.00
11878;BME280;5998;42.676;23.268;2024-02-23T04:38:31;94498.25;;;5.59;100.00
11878;BME280;5998;42.676;23.268;2024-02-23T04:41:02;94487.72;;;5.54;100.00
11878;BME280;5998;42.676;23.268;2024-02-23T04:43:29;94479.56;;;5.51;100.00
11878;BME280;5998;42.676;23.268;2024-02-23T04:45:56;94497.78;;;5.57;100.00
11878;BME280;5998;42.676;23.268;2024-02-23T04:48:24;94484.72;;;5.56;100.00
11878;BME280;5998;42.676;23.268;2024-02-23T04:50:51;94493.06;;;5.54;100.00
11878;BME280;5998;42.676;23.268;2024-02-23T04:53:17;94497.16;;;5.60;100.00
11878;BME280;5998;42.676;23.268;2024-02-23T04:55:44;94494.00;;;5.67;100.00
11878;BME280;5998;42.676;23.268;2024-02-23T04:58:11;94498.25;;;5.68;100.00
11878;BME280;5998;42.676;23.268;2024-02-23T05:00:38;94488.81;;;5.53;100.00
11878;BME280;5998;42.676;23.268;2024-02-23T05:03:05;94500.13;;;5.50;100.00
11878;BME280;5998;42.676;23.268;2024-02-23T05:05:35;94491.97;;;5.38;100.00
11878;BME280;5998;42.676;23.268;2024-02-23T05:08:02;94506.56;;;5.23;100.00
11878;BME280;5998;42.676;23.268;2024-02-23T05:10:28;94518.66;;;5.29;100.00
11878;BME280;5998;42.676;23.268;2024-02-23T05:12:55;94520.72;;;5.32;100.00
11878;BME280;5998;42.676;23.268;2024-02-23T05:15:22;94502.94;;;5.02;100.00
11878;BME280;5998;42.676;23.268;2024-02-23T05:17:48;94530.38;;;5.03;100.00
11878;BME280;5998;42.676;23.268;2024-02-23T05:20:15;94534.47;;;5.00;100.00
11878;BME280;5998;42.676;23.268;2024-02-23T05:22:43;94520.00;;;4.84;100.00
11878;BME280;5998;42.676;23.268;2024-02-23T05:25:10;94532.31;;;5.11;100.00
11878;BME280;5998;42.676;23.268;2024-02-23T05:27:36;94527.72;;;5.11;100.00
11878;BME280;5998;42.676;23.268;2024-02-23T05:30:04;94544.38;;;5.00;100.00
11878;BME280;5998;42.676;23.268;2024-02-23T05:32:31;94529.94;;;5.09;100.00
11878;BME280;5998;42.676;23.268;2024-02-23T05:34:58;94545.50;;;5.24;100.00
11878;BME280;5998;42.676;23.268;2024-02-23T05:37:28;94518.13;;;4.93;100.00
11878;BME280;5998;42.676;23.268;2024-02-23T05:39:56;94516.38;;;4.80;100.00
11878;BME280;5998;42.676;23.268;2024-02-23T05:42:25;94536.75;;;4.76;100.00
11878;BME280;5998;42.676;23.268;2024-02-23T05:44:51;94537.25;;;4.87;100.00
11878;BME280;5998;42.676;23.268;2024-02-23T05:47:18;94537.94;;;5.09;100.00
11878;BME280;5998;42.676;23.268;2024-02-23T05:49:46;94528.03;;;5.01;100.00
11878;BME280;5998;42.676;23.268;2024-02-23T05:52:13;94550.06;;;5.24;100.00
11878;BME280;5998;42.676;23.268;2024-02-23T05:54:41;94535.31;;;5.35;100.00
11878;BME280;5998;42.676;23.268;2024-02-23T05:57:09;94538.59;;;5.58;100.00
11878;BME280;5998;42.676;23.268;2024-02-23T05:59:35;94543.03;;;5.62;100.00
11878;BME280;5998;42.676;23.268;2024-02-23T06:02:02;94551.53;;;5.90;100.00
11878;BME280;5998;42.676;23.268;2024-02-23T06:04:29;94548.66;;;6.12;100.00
11878;BME280;5998;42.676;23.268;2024-02-23T06:06:55;94532.44;;;6.17;100.00
11878;BME280;5998;42.676;23.268;2024-02-23T06:09:22;94568.28;;;6.16;100.00
11878;BME280;5998;42.676;23.268;2024-02-23T06:11:48;94542.34;;;6.25;100.00
11878;BME280;5998;42.676;23.268;2024-02-23T06:14:16;94554.44;;;6.31;100.00
11878;BME280;5998;42.676;23.268;2024-02-23T06:16:44;94549.97;;;6.44;100.00
11878;BME280;5998;42.676;23.268;2024-02-23T06:19:10;94552.06;;;6.76;100.00
11878;BME280;5998;42.676;23.268;2024-02-23T06:21:37;94558.31;;;6.89;100.00
11878;BME280;5998;42.676;23.268;2024-02-23T06:24:04;94545.75;;;7.10;100.00
11878;BME280;5998;42.676;23.268;2024-02-23T06:26:33;94547.03;;;7.04;100.00
11878;BME280;5998;42.676;23.268;2024-02-23T06:29:00;94546.53;;;7.10;100.00
11878;BME280;5998;42.676;23.268;2024-02-23T06:31:28;94558.75;;;7.49;100.00
11878;BME280;5998;42.676;23.268;2024-02-23T06:33:55;94554.50;;;7.69;100.00
11878;BME280;5998;42.676;23.268;2024-02-23T06:36:21;94535.22;;;7.34;100.00
11878;BME280;5998;42.676;23.268;2024-02-23T06:38:48;94522.66;;;7.26;100.00
11878;BME280;5998;42.676;23.268;2024-02-23T06:41:15;94564.44;;;7.68;100.00
11878;BME280;5998;42.676;23.268;2024-02-23T06:43:42;94527.69;;;7.48;100.00
11878;BME280;5998;42.676;23.268;2024-02-23T06:46:09;94535.09;;;7.51;100.00
11878;BME280;5998;42.676;23.268;2024-02-23T06:48:37;94554.41;;;7.78;100.00
11878;BME280;5998;42.676;23.268;2024-02-23T06:51:05;94547.69;;;7.92;100.00
11878;BME280;5998;42.676;23.268;2024-02-23T06:53:34;94557.91;;;8.11;100.00
11878;BME280;5998;42.676;23.268;2024-02-23T06:56:01;94548.81;;;8.24;100.00
11878;BME280;5998;42.676;23.268;2024-02-23T06:58:28;94548.84;;;8.03;100.00
11878;BME280;5998;42.676;23.268;2024-02-23T07:00:55;94563.19;;;8.40;100.00
11878;BME280;5998;42.676;23.268;2024-02-23T07:03:21;94560.56;;;8.64;100.00
11878;BME280;5998;42.676;23.268;2024-02-23T07:05:50;94556.44;;;8.79;100.00
11878;BME280;5998;42.676;23.268;2024-02-23T07:08:16;94537.19;;;8.65;100.00
11878;BME280;5998;42.676;23.268;2024-02-23T07:10:43;94562.81;;;8.99;100.00
11878;BME280;5998;42.676;23.268;2024-02-23T07:13:10;94550.88;;;9.08;100.00
11878;BME280;5998;42.676;23.268;2024-02-23T07:15:37;94543.69;;;8.76;100.00
11878;BME280;5998;42.676;23.268;2024-02-23T07:18:04;94556.69;;;8.98;100.00
11878;BME280;5998;42.676;23.268;2024-02-23T07:20:33;94556.78;;;8.89;100.00
11878;BME280;5998;42.676;23.268;2024-02-23T07:23:01;94545.81;;;8.82;100.00
11878;BME280;5998;42.676;23.268;2024-02-23T07:25:27;94551.06;;;8.79;100.00
11878;BME280;5998;42.676;23.268;2024-02-23T07:27:55;94548.06;;;9.17;100.00
11878;BME280;5998;42.676;23.268;2024-02-23T07:30:22;94530.47;;;9.31;100.00
11878;BME280;5998;42.676;23.268;2024-02-23T07:32:48;94538.31;;;9.24;100.00
11878;BME280;5998;42.676;23.268;2024-02-23T07:35:15;94543.53;;;9.45;100.00
11878;BME280;5998;42.676;23.268;2024-02-23T07:37:42;94539.25;;;9.68;100.00
11878;BME280;5998;42.676;23.268;2024-02-23T07:40:11;94549.78;;;10.01;100.00
11878;BME280;5998;42.676;23.268;2024-02-23T07:42:38;94540.09;;;10.12;100.00
11878;BME280;5998;42.676;23.268;2024-02-23T07:45:05;94543.69;;;9.88;100.00
11878;BME280;5998;42.676;23.268;2024-02-23T07:47:33;94532.28;;;10.07;100.00
11878;BME280;5998;42.676;23.268;2024-02-23T07:50:00;94546.91;;;10.49;100.00
11878;BME280;5998;42.676;23.268;2024-02-23T07:52:26;94545.38;;;10.80;100.00
11878;BME280;5998;42.676;23.268;2024-02-23T07:54:53;94532.50;;;11.04;100.00
11878;BME280;5998;42.676;23.268;2024-02-23T07:57:21;94545.56;;;11.02;100.00
11878;BME280;5998;42.676;23.268;2024-02-23T07:59:48;94554.59;;;10.94;100.00
11878;BME280;5998;42.676;23.268;2024-02-23T08:02:15;94543.66;;;11.03;100.00
11878;BME280;5998;42.676;23.268;2024-02-23T08:04:42;94523.97;;;10.40;100.00
11878;BME280;5998;42.676;23.268;2024-02-23T08:07:08;94540.59;;;10.57;100.00
11878;BME280;5998;42.676;23.268;2024-02-23T08:09:35;94534.16;;;10.78;100.00
11878;BME280;5998;42.676;23.268;2024-02-23T08:12:02;94524.22;;;10.35;100.00
11878;BME280;5998;42.676;23.268;2024-02-23T08:14:31;94512.00;;;10.37;100.00
11878;BME280;5998;42.676;23.268;2024-02-23T08:16:58;94525.66;;;10.60;100.00
11878;BME280;5998;42.676;23.268;2024-02-23T08:19:25;94527.50;;;10.87;100.00
11878;BME280;5998;42.676;23.268;2024-02-23T08:21:51;94531.13;;;11.10;100.00
11878;BME280;5998;42.676;23.268;2024-02-23T08:24:18;94528.81;;;11.44;100.00
11878;BME280;5998;42.676;23.268;2024-02-23T08:26:45;94538.88;;;11.47;100.00
11878;BME280;5998;42.676;23.268;2024-02-23T08:29:11;94541.53;;;11.78;100.00
11878;BME280;5998;42.676;23.268;2024-02-23T08:31:39;94527.88;;;11.71;100.00
11878;BME280;5998;42.676;23.268;2024-02-23T08:34:06;94515.13;;;11.52;100.00
11878;BME280;5998;42.676;23.268;2024-02-23T08:36:33;94501.59;;;11.68;100.00
11878;BME280;5998;42.676;23.268;2024-02-23T08:38:59;94509.53;;;11.96;100.00
11878;BME280;5998;42.676;23.268;2024-02-23T08:41:26;94500.47;;;12.26;100.00
11878;BME280;5998;42.676;23.268;2024-02-23T08:43:53;94502.09;;;12.31;100.00
11878;BME280;5998;42.676;23.268;2024-02-23T08:46:20;94513.72;;;12.12;100.00
11878;BME280;5998;42.676;23.268;2024-02-23T08:48:49;94511.94;;;12.01;100.00
11878;BME280;5998;42.676;23.268;2024-02-23T08:51:16;94515.28;;;12.13;100.00
11878;BME280;5998;42.676;23.268;2024-02-23T08:53:43;94512.41;;;12.25;100.00
11878;BME280;5998;42.676;23.268;2024-02-23T08:56:10;94497.94;;;12.14;100.00
11878;BME280;5998;42.676;23.268;2024-02-23T08:58:37;94513.19;;;12.26;100.00
11878;BME280;5998;42.676;23.268;2024-02-23T09:01:04;94505.88;;;12.26;100.00
11878;BME280;5998;42.676;23.268;2024-02-23T09:03:31;94502.47;;;12.29;100.00
11878;BME280;5998;42.676;23.268;2024-02-23T09:05:59;94504.88;;;12.34;100.00
11878;BME280;5998;42.676;23.268;2024-02-23T09:08:26;94466.44;;;12.41;100.00
11878;BME280;5998;42.676;23.268;2024-02-23T09:10:52;94495.31;;;12.60;100.00
11878;BME280;5998;42.676;23.268;2024-02-23T09:13:19;94500.16;;;12.51;100.00
11878;BME280;5998;42.676;23.268;2024-02-23T09:15:46;94499.22;;;12.85;100.00
11878;BME280;5998;42.676;23.268;2024-02-23T09:18:12;94501.38;;;12.98;100.00
11878;BME280;5998;42.676;23.268;2024-02-23T09:20:39;94485.03;;;12.91;100.00
11878;BME280;5998;42.676;23.268;2024-02-23T09:23:08;94494.88;;;12.80;100.00
11878;BME280;5998;42.676;23.268;2024-02-23T09:25:35;94494.53;;;12.82;100.00
11878;BME280;5998;42.676;23.268;2024-02-23T09:28:01;94508.28;;;12.96;100.00
11878;BME280;5998;42.676;23.268;2024-02-23T09:30:28;94497.34;;;12.89;100.00
11878;BME280;5998;42.676;23.268;2024-02-23T09:32:55;94505.53;;;13.15;100.00
11878;BME280;5998;42.676;23.268;2024-02-23T09:35:22;94506.34;;;13.19;100.00
11878;BME280;5998;42.676;23.268;2024-02-23T09:37:48;94505.16;;;13.17;100.00
11878;BME280;5998;42.676;23.268;2024-02-23T09:40:16;94501.47;;;13.28;100.00
11878;BME280;5998;42.676;23.268;2024-02-23T09:42:48;94502.19;;;13.51;100.00
11878;BME280;5998;42.676;23.268;2024-02-23T09:45:18;94496.88;;;13.58;98.44
11878;BME280;5998;42.676;23.268;2024-02-23T09:47:47;94502.34;;;13.62;100.00
11878;BME280;5998;42.676;23.268;2024-02-23T09:50:15;94494.75;;;13.45;97.94
11878;BME280;5998;42.676;23.268;2024-02-23T09:52:45;94510.00;;;13.30;98.52
11878;BME280;5998;42.676;23.268;2024-02-23T09:55:16;94494.75;;;13.19;100.00
11878;BME280;5998;42.676;23.268;2024-02-23T09:57:44;94489.44;;;13.52;100.00
11878;BME280;5998;42.676;23.268;2024-02-23T10:00:12;94498.06;;;13.91;99.97
11878;BME280;5998;42.676;23.268;2024-02-23T10:02:39;94488.94;;;14.02;95.25
11878;BME280;5998;42.676;23.268;2024-02-23T10:05:08;94459.94;;;13.70;94.98
11878;BME280;5998;42.676;23.268;2024-02-23T10:07:37;94476.38;;;13.87;95.13
11878;BME280;5998;42.676;23.268;2024-02-23T10:10:07;94481.44;;;13.89;92.69
11878;BME280;5998;42.676;23.268;2024-02-23T10:12:35;94463.16;;;13.82;92.42
11878;BME280;5998;42.676;23.268;2024-02-23T10:15:02;94486.75;;;14.15;92.53
11878;BME280;5998;42.676;23.268;2024-02-23T10:17:30;94469.22;;;14.35;90.58
11878;BME280;5998;42.676;23.268;2024-02-23T10:19:57;94479.53;;;14.59;88.44
11878;BME280;5998;42.676;23.268;2024-02-23T10:22:23;94483.47;;;14.65;86.30
11878;BME280;5998;42.676;23.268;2024-02-23T10:24:51;94458.09;;;14.88;84.95
11878;BME280;5998;42.676;23.268;2024-02-23T10:27:18;94489.47;;;15.40;83.17
11878;BME280;5998;42.676;23.268;2024-02-23T10:29:49;94460.28;;;15.19;79.15
11878;BME280;5998;42.676;23.268;2024-02-23T10:32:18;94465.63;;;15.63;82.85
11878;BME280;5998;42.676;23.268;2024-02-23T10:34:47;94459.59;;;15.98;79.74
11878;BME280;5998;42.676;23.268;2024-02-23T10:37:15;94461.50;;;15.93;74.62
11878;BME280;5998;42.676;23.268;2024-02-23T10:39:42;94451.66;;;15.64;76.83
11878;BME280;5998;42.676;23.268;2024-02-23T10:42:09;94429.41;;;15.41;77.66
11878;BME280;5998;42.676;23.268;2024-02-23T10:44:37;94447.72;;;15.51;77.34
11878;BME280;5998;42.676;23.268;2024-02-23T10:47:06;94436.94;;;15.65;79.51
11878;BME280;5998;42.676;23.268;2024-02-23T10:49:34;94440.13;;;15.81;77.77
11878;BME280;5998;42.676;23.268;2024-02-23T10:52:01;94445.59;;;15.92;74.68
11878;BME280;5998;42.676;23.268;2024-02-23T10:54:31;94447.84;;;15.79;74.59
11878;BME280;5998;42.676;23.268;2024-02-23T10:56:58;94430.38;;;15.70;75.22
11878;BME280;5998;42.676;23.268;2024-02-23T10:59:26;94424.59;;;15.78;73.56
11878;BME280;5998;42.676;23.268;2024-02-23T11:01:54;94447.94;;;15.97;73.07
11878;BME280;5998;42.676;23.268;2024-02-23T11:04:25;94423.50;;;16.04;73.23
11878;BME280;5998;42.676;23.268;2024-02-23T11:06:53;94414.53;;;15.86;72.06
11878;BME280;5998;42.676;23.268;2024-02-23T11:09:22;94404.91;;;16.10;73.39
11878;BME280;5998;42.676;23.268;2024-02-23T11:11:53;94413.81;;;16.00;73.94
11878;BME280;5998;42.676;23.268;2024-02-23T11:14:29;94399.13;;;16.29;71.51
11878;BME280;5998;42.676;23.268;2024-02-23T11:16:57;94409.25;;;16.49;67.27
11878;BME280;5998;42.676;23.268;2024-02-23T11:19:33;94410.47;;;16.66;67.93
11878;BME280;5998;42.676;23.268;2024-02-23T11:22:01;94405.81;;;16.91;67.67
11878;BME280;5998;42.676;23.268;2024-02-23T11:24:28;94401.16;;;17.02;66.89
11878;BME280;5998;42.676;23.268;2024-02-23T11:26:56;94402.69;;;17.14;65.16
11878;BME280;5998;42.676;23.268;2024-02-23T11:29:26;94399.91;;;17.49;72.95
11878;BME280;5998;42.676;23.268;2024-02-23T11:31:53;94390.06;;;17.91;81.60
11878;BME280;5998;42.676;23.268;2024-02-23T11:34:26;94383.00;;;18.04;73.52
11878;BME280;5998;42.676;23.268;2024-02-23T11:36:55;94389.44;;;18.35;63.07
11878;BME280;5998;42.676;23.268;2024-02-23T11:39:23;94386.94;;;18.61;65.88
11878;BME280;5998;42.676;23.268;2024-02-23T11:41:51;94381.06;;;18.70;64.31
11878;BME280;5998;42.676;23.268;2024-02-23T11:44:17;94386.72;;;18.31;61.83
11878;BME280;5998;42.676;23.268;2024-02-23T11:46:44;94383.41;;;17.95;62.02
11878;BME280;5998;42.676;23.268;2024-02-23T11:49:12;94383.53;;;17.63;62.26
11878;BME280;5998;42.676;23.268;2024-02-23T11:51:38;94378.13;;;17.46;61.79
11878;BME280;5998;42.676;23.268;2024-02-23T11:54:07;94381.16;;;17.80;64.33
11878;BME280;5998;42.676;23.268;2024-02-23T11:56:34;94372.47;;;18.02;62.72
11878;BME280;5998;42.676;23.268;2024-02-23T11:59:01;94365.44;;;18.12;60.85
11878;BME280;5998;42.676;23.268;2024-02-23T12:01:29;94362.91;;;18.46;56.91
11878;BME280;5998;42.676;23.268;2024-02-23T12:03:57;94367.56;;;18.45;57.15
11878;BME280;5998;42.676;23.268;2024-02-23T12:06:24;94376.13;;;18.51;59.73
11878;BME280;5998;42.676;23.268;2024-02-23T12:08:54;94360.13;;;18.56;57.49
11878;BME280;5998;42.676;23.268;2024-02-23T12:11:23;94355.75;;;18.62;58.76
11878;BME280;5998;42.676;23.268;2024-02-23T12:13:50;94365.22;;;18.44;61.01
11878;BME280;5998;42.676;23.268;2024-02-23T12:16:17;94345.72;;;18.52;60.04
11878;BME280;5998;42.676;23.268;2024-02-23T12:18:44;94330.31;;;18.24;58.54
11878;BME280;5998;42.676;23.268;2024-02-23T12:21:11;94364.53;;;18.33;56.30
11878;BME280;5998;42.676;23.268;2024-02-23T12:23:39;94361.69;;;17.81;57.39
11878;BME280;5998;42.676;23.268;2024-02-23T12:29:18;94348.66;;;17.13;60.49
11878;BME280;5998;42.676;23.268;2024-02-23T12:31:45;94338.59;;;16.95;62.31
11878;BME280;5998;42.676;23.268;2024-02-23T12:34:14;94337.38;;;17.14;61.62
11878;BME280;5998;42.676;23.268;2024-02-23T12:36:40;94324.22;;;16.84;61.25
11878;BME280;5998;42.676;23.268;2024-02-23T12:39:07;94330.03;;;17.00;61.42
11878;BME280;5998;42.676;23.268;2024-02-23T12:41:34;94324.63;;;16.79;59.77
11878;BME280;5998;42.676;23.268;2024-02-23T12:44:00;94321.09;;;17.03;60.07
11878;BME280;5998;42.676;23.268;2024-02-23T12:46:29;94331.22;;;16.99;60.12
11878;BME280;5998;42.676;23.268;2024-02-23T12:48:55;94326.88;;;17.20;61.05
11878;BME280;5998;42.676;23.268;2024-02-23T12:51:25;94320.31;;;17.14;59.76
11878;BME280;5998;42.676;23.268;2024-02-23T12:53:52;94325.31;;;17.26;59.79
11878;BME280;5998;42.676;23.268;2024-02-23T12:56:19;94295.78;;;17.28;58.06
11878;BME280;5998;42.676;23.268;2024-02-23T12:58:46;94303.91;;;17.35;58.21
11878;BME280;5998;42.676;23.268;2024-02-23T13:01:12;94304.19;;;17.68;57.25